sensor_id;sensor_type;location;lat;lon;timestamp;pressure;altitude;pressure_sealevel;temperature;humidity
50430;BME280;36359;41.556;-8.418;2023-03-31T00:02:22;100802.59;;;17.27;100.00
50430;BME280;36359;41.556;-8.418;2023-03-31T00:04:48;100808.34;;;17.32;100.00
50430;BME280;36359;41.556;-8.418;2023-03-31T00:07:24;100800.00;;;17.02;100.00
50430;BME280;36359;41.556;-8.418;2023-03-31T00:09:50;100793.50;;;17.03;100.00
50430;BME280;36359;41.556;-8.418;2023-03-31T00:12:20;100802.44;;;17.20;100.00
50430;BME280;36359;41.556;-8.418;2023-03-31T00:14:46;100799.34;;;17.23;99.37
50430;BME280;36359;41.556;-8.418;2023-03-31T00:17:11;100796.25;;;17.27;100.00
50430;BME280;36359;41.556;-8.418;2023-03-31T00:19:39;100805.34;;;17.27;100.00
50430;BME280;36359;41.556;-8.418;2023-03-31T00:22:07;100815.22;;;17.36;100.00
50430;BME280;36359;41.556;-8.418;2023-03-31T00:24:33;100815.69;;;17.40;98.53
50430;BME280;36359;41.556;-8.418;2023-03-31T00:27:03;100810.75;;;17.35;100.00
50430;BME280;36359;41.556;-8.418;2023-03-31T00:29:29;100799.94;;;17.11;100.00
50430;BME280;36359;41.556;-8.418;2023-03-31T00:31:56;100789.81;;;17.11;100.00
50430;BME280;36359;41.556;-8.418;2023-03-31T00:34:25;100793.13;;;17.07;100.00
50430;BME280;36359;41.556;-8.418;2023-03-31T00:36:50;100797.69;;;17.14;100.00
50430;BME280;36359;41.556;-8.418;2023-03-31T00:39:21;100794.13;;;17.37;96.94
50430;BME280;36359;41.556;-8.418;2023-03-31T00:41:48;100801.00;;;17.33;99.69
50430;BME280;36359;41.556;-8.418;2023-03-31T00:44:17;100801.66;;;17.12;100.00
50430;BME280;36359;41.556;-8.418;2023-03-31T00:49:33;100789.47;;;17.37;97.48
50430;BME280;36359;41.556;-8.418;2023-03-31T00:52:32;100786.31;;;17.48;95.51
50430;BME280;36359;41.556;-8.418;2023-03-31T00:55:09;100786.41;;;17.32;98.99
50430;BME280;36359;41.556;-8.418;2023-03-31T00:57:38;100791.38;;;17.37;100.00
50430;BME280;36359;41.556;-8.418;2023-03-31T01:00:08;100783.03;;;17.30;100.00
50430;BME280;36359;41.556;-8.418;2023-03-31T01:02:42;100787.41;;;17.39;97.85
50430;BME280;36359;41.556;-8.418;2023-03-31T01:05:19;100780.44;;;17.29;100.00
50430;BME280;36359;41.556;-8.418;2023-03-31T01:07:47;100784.84;;;17.38;100.00
50430;BME280;36359;41.556;-8.418;2023-03-31T01:10:17;100780.94;;;17.32;100.00
50430;BME280;36359;41.556;-8.418;2023-03-31T01:12:46;100784.56;;;17.33;99.21
50430;BME280;36359;41.556;-8.418;2023-03-31T01:15:13;100775.41;;;17.40;97.13
50430;BME280;36359;41.556;-8.418;2023-03-31T01:17:40;100774.38;;;17.41;97.05
50430;BME280;36359;41.556;-8.418;2023-03-31T01:32:23;100753.13;;;17.35;100.00
50430;BME280;36359;41.556;-8.418;2023-03-31T01:37:39;100765.22;;;17.26;100.00
50430;BME280;36359;41.556;-8.418;2023-03-31T01:46:24;100772.84;;;17.39;100.00
50430;BME280;36359;41.556;-8.418;2023-03-31T01:49:13;100766.94;;;17.27;100.00
50430;BME280;36359;41.556;-8.418;2023-03-31T01:51:56;100764.50;;;17.09;100.00
50430;BME280;36359;41.556;-8.418;2023-03-31T01:57:01;100747.31;;;16.92;100.00
50430;BME280;36359;41.556;-8.418;2023-03-31T01:59:38;100742.31;;;16.96;100.00
50430;BME280;36359;41.556;-8.418;2023-03-31T02:04:40;100741.03;;;17.07;100.00
50430;BME280;36359;41.556;-8.418;2023-03-31T02:07:26;100739.31;;;17.06;100.00
50430;BME280;36359;41.556;-8.418;2023-03-31T02:09:57;100733.91;;;16.97;100.00
50430;BME280;36359;41.556;-8.418;2023-03-31T02:12:28;100732.66;;;17.00;100.00
50430;BME280;36359;41.556;-8.418;2023-03-31T02:14:57;100752.59;;;16.94;100.00
50430;BME280;36359;41.556;-8.418;2023-03-31T02:17:25;100745.09;;;16.88;100.00
50430;BME280;36359;41.556;-8.418;2023-03-31T02:19:58;100737.44;;;16.83;100.00
50430;BME280;36359;41.556;-8.418;2023-03-31T02:22:29;100730.94;;;16.76;100.00
50430;BME280;36359;41.556;-8.418;2023-03-31T02:24:57;100747.06;;;16.71;100.00
50430;BME280;36359;41.556;-8.418;2023-03-31T02:27:35;100738.88;;;16.63;100.00
50430;BME280;36359;41.556;-8.418;2023-03-31T02:30:05;100743.63;;;16.77;100.00
50430;BME280;36359;41.556;-8.418;2023-03-31T02:34:58;100729.66;;;16.95;100.00
50430;BME280;36359;41.556;-8.418;2023-03-31T02:37:27;100727.78;;;16.87;100.00
50430;BME280;36359;41.556;-8.418;2023-03-31T02:39:55;100725.97;;;17.02;100.00
50430;BME280;36359;41.556;-8.418;2023-03-31T02:42:22;100739.53;;;16.65;100.00
50430;BME280;36359;41.556;-8.418;2023-03-31T02:44:50;100742.22;;;16.73;100.00
50430;BME280;36359;41.556;-8.418;2023-03-31T02:47:18;100748.44;;;16.67;100.00
50430;BME280;36359;41.556;-8.418;2023-03-31T02:49:53;100749.81;;;16.71;100.00
50430;BME280;36359;41.556;-8.418;2023-03-31T02:55:12;100745.72;;;16.58;100.00
50430;BME280;36359;41.556;-8.418;2023-03-31T03:06:03;100732.41;;;17.18;100.00
50430;BME280;36359;41.556;-8.418;2023-03-31T03:08:47;100733.19;;;17.03;100.00
50430;BME280;36359;41.556;-8.418;2023-03-31T03:19:31;100740.25;;;16.58;100.00
50430;BME280;36359;41.556;-8.418;2023-03-31T03:21:57;100743.78;;;16.44;100.00
50430;BME280;36359;41.556;-8.418;2023-03-31T03:24:23;100729.97;;;16.61;100.00
50430;BME280;36359;41.556;-8.418;2023-03-31T03:26:54;100718.97;;;16.69;100.00
50430;BME280;36359;41.556;-8.418;2023-03-31T03:29:20;100723.00;;;16.89;100.00
50430;BME280;36359;41.556;-8.418;2023-03-31T03:31:46;100709.41;;;16.96;100.00
50430;BME280;36359;41.556;-8.418;2023-03-31T03:34:12;100715.03;;;16.79;100.00
50430;BME280;36359;41.556;-8.418;2023-03-31T03:36:38;100715.03;;;16.79;100.00
50430;BME280;36359;41.556;-8.418;2023-03-31T03:39:05;100720.56;;;16.94;100.00
50430;BME280;36359;41.556;-8.418;2023-03-31T03:41:32;100731.59;;;16.86;100.00
50430;BME280;36359;41.556;-8.418;2023-03-31T03:43:59;100735.59;;;16.67;100.00
50430;BME280;36359;41.556;-8.418;2023-03-31T03:46:25;100741.25;;;16.66;100.00
50430;BME280;36359;41.556;-8.418;2023-03-31T03:48:51;100733.16;;;16.72;100.00
50430;BME280;36359;41.556;-8.418;2023-03-31T03:51:16;100722.13;;;16.57;100.00
50430;BME280;36359;41.556;-8.418;2023-03-31T03:53:42;100718.91;;;16.54;100.00
50430;BME280;36359;41.556;-8.418;2023-03-31T03:56:08;100727.94;;;16.63;100.00
50430;BME280;36359;41.556;-8.418;2023-03-31T03:58:34;100724.53;;;16.52;100.00
50430;BME280;36359;41.556;-8.418;2023-03-31T04:00:59;100736.50;;;16.60;100.00
50430;BME280;36359;41.556;-8.418;2023-03-31T04:03:25;100729.28;;;16.58;100.00
50430;BME280;36359;41.556;-8.418;2023-03-31T04:05:51;100730.19;;;16.59;100.00
50430;BME280;36359;41.556;-8.418;2023-03-31T04:08:17;100728.56;;;16.65;100.00
50430;BME280;36359;41.556;-8.418;2023-03-31T04:10:48;100718.25;;;16.75;100.00
50430;BME280;36359;41.556;-8.418;2023-03-31T04:13:14;100724.19;;;16.55;100.00
50430;BME280;36359;41.556;-8.418;2023-03-31T04:15:41;100736.06;;;16.40;100.00
50430;BME280;36359;41.556;-8.418;2023-03-31T04:18:07;100729.03;;;16.45;100.00
50430;BME280;36359;41.556;-8.418;2023-03-31T04:20:38;100742.47;;;16.63;100.00
50430;BME280;36359;41.556;-8.418;2023-03-31T04:23:04;100742.38;;;16.48;100.00
50430;BME280;36359;41.556;-8.418;2023-03-31T04:25:30;100745.00;;;16.65;100.00
50430;BME280;36359;41.556;-8.418;2023-03-31T04:27:56;100740.78;;;16.62;100.00
50430;BME280;36359;41.556;-8.418;2023-03-31T04:30:25;100746.16;;;16.47;100.00
50430;BME280;36359;41.556;-8.418;2023-03-31T04:32:57;100753.06;;;16.66;100.00
50430;BME280;36359;41.556;-8.418;2023-03-31T04:35:24;100740.78;;;16.62;100.00
50430;BME280;36359;41.556;-8.418;2023-03-31T04:37:52;100749.25;;;16.44;100.00
50430;BME280;36359;41.556;-8.418;2023-03-31T04:40:25;100751.66;;;16.39;100.00
50430;BME280;36359;41.556;-8.418;2023-03-31T04:42:51;100752.28;;;16.49;100.00
50430;BME280;36359;41.556;-8.418;2023-03-31T04:45:17;100751.72;;;16.23;100.00
50430;BME280;36359;41.556;-8.418;2023-03-31T04:47:42;100745.25;;;16.16;100.00
50430;BME280;36359;41.556;-8.418;2023-03-31T04:50:09;100740.91;;;16.29;100.00
50430;BME280;36359;41.556;-8.418;2023-03-31T04:52:36;100752.03;;;16.36;100.00
50430;BME280;36359;41.556;-8.418;2023-03-31T04:55:02;100756.78;;;16.42;100.00
50430;BME280;36359;41.556;-8.418;2023-03-31T04:57:28;100767.75;;;16.42;100.00
50430;BME280;36359;41.556;-8.418;2023-03-31T04:59:53;100779.38;;;16.44;100.00
50430;BME280;36359;41.556;-8.418;2023-03-31T05:02:19;100769.06;;;16.46;100.00
50430;BME280;36359;41.556;-8.418;2023-03-31T05:04:50;100776.34;;;16.31;100.00
50430;BME280;36359;41.556;-8.418;2023-03-31T05:07:17;100775.28;;;16.40;100.00
50430;BME280;36359;41.556;-8.418;2023-03-31T05:09:43;100781.94;;;16.46;100.00
50430;BME280;36359;41.556;-8.418;2023-03-31T05:12:09;100777.66;;;16.43;100.00
50430;BME280;36359;41.556;-8.418;2023-03-31T05:14:35;100778.19;;;16.39;100.00
50430;BME280;36359;41.556;-8.418;2023-03-31T05:17:01;100782.59;;;16.48;100.00
50430;BME280;36359;41.556;-8.418;2023-03-31T05:19:26;100770.38;;;16.19;100.00
50430;BME280;36359;41.556;-8.418;2023-03-31T05:21:52;100776.91;;;16.18;100.00
50430;BME280;36359;41.556;-8.418;2023-03-31T05:24:18;100783.19;;;16.27;100.00
50430;BME280;36359;41.556;-8.418;2023-03-31T05:26:44;100790.38;;;16.20;100.00
50430;BME280;36359;41.556;-8.418;2023-03-31T05:29:14;100799.84;;;16.09;100.00
50430;BME280;36359;41.556;-8.418;2023-03-31T05:31:41;100805.63;;;16.06;100.00
50430;BME280;36359;41.556;-8.418;2023-03-31T05:34:07;100803.25;;;16.03;100.00
50430;BME280;36359;41.556;-8.418;2023-03-31T05:36:32;100814.03;;;16.04;100.00
50430;BME280;36359;41.556;-8.418;2023-03-31T05:38:59;100807.22;;;15.92;100.00
50430;BME280;36359;41.556;-8.418;2023-03-31T05:41:25;100814.03;;;15.31;100.00
50430;BME280;36359;41.556;-8.418;2023-03-31T05:43:50;100807.53;;;15.24;100.00
50430;BME280;36359;41.556;-8.418;2023-03-31T05:46:16;100783.97;;;15.39;100.00
50430;BME280;36359;41.556;-8.418;2023-03-31T05:48:42;100798.53;;;15.72;100.00
50430;BME280;36359;41.556;-8.418;2023-03-31T05:54:13;100808.59;;;15.72;100.00
50430;BME280;36359;41.556;-8.418;2023-03-31T05:56:38;100813.88;;;15.65;100.00
50430;BME280;36359;41.556;-8.418;2023-03-31T05:59:04;100803.94;;;15.56;100.00
50430;BME280;36359;41.556;-8.418;2023-03-31T06:01:30;100813.19;;;15.55;100.00
50430;BME280;36359;41.556;-8.418;2023-03-31T06:03:56;100815.56;;;15.58;100.00
50430;BME280;36359;41.556;-8.418;2023-03-31T06:06:22;100816.09;;;15.45;100.00
50430;BME280;36359;41.556;-8.418;2023-03-31T06:08:49;100825.66;;;15.33;100.00
50430;BME280;36359;41.556;-8.418;2023-03-31T06:11:18;100840.34;;;15.32;100.00
50430;BME280;36359;41.556;-8.418;2023-03-31T06:13:44;100851.31;;;15.56;100.00
50430;BME280;36359;41.556;-8.418;2023-03-31T06:16:12;100840.72;;;15.45;100.00
50430;BME280;36359;41.556;-8.418;2023-03-31T06:18:38;100834.03;;;15.39;100.00
50430;BME280;36359;41.556;-8.418;2023-03-31T06:21:08;100842.41;;;15.46;100.00
50430;BME280;36359;41.556;-8.418;2023-03-31T06:24:08;100851.31;;;15.48;100.00
50430;BME280;36359;41.556;-8.418;2023-03-31T06:30:21;100848.09;;;15.94;100.00
50430;BME280;36359;41.556;-8.418;2023-03-31T06:33:18;100868.09;;;16.02;100.00
50430;BME280;36359;41.556;-8.418;2023-03-31T06:35:44;100850.81;;;15.94;100.00
50430;BME280;36359;41.556;-8.418;2023-03-31T06:38:12;100849.47;;;15.89;100.00
50430;BME280;36359;41.556;-8.418;2023-03-31T06:46:25;100872.53;;;16.11;100.00
50430;BME280;36359;41.556;-8.418;2023-03-31T06:48:50;100855.09;;;16.21;100.00
50430;BME280;36359;41.556;-8.418;2023-03-31T06:51:16;100858.53;;;15.98;100.00
50430;BME280;36359;41.556;-8.418;2023-03-31T06:53:42;100884.50;;;16.10;100.00
50430;BME280;36359;41.556;-8.418;2023-03-31T06:56:08;100874.25;;;16.04;100.00
50430;BME280;36359;41.556;-8.418;2023-03-31T06:58:33;100894.25;;;15.97;100.00
50430;BME280;36359;41.556;-8.418;2023-03-31T07:01:02;100885.88;;;16.15;100.00
50430;BME280;36359;41.556;-8.418;2023-03-31T07:03:28;100904.50;;;15.70;100.00
50430;BME280;36359;41.556;-8.418;2023-03-31T07:05:54;100907.78;;;15.82;100.00
50430;BME280;36359;41.556;-8.418;2023-03-31T07:08:21;100925.91;;;15.83;100.00
50430;BME280;36359;41.556;-8.418;2023-03-31T07:11:05;100915.66;;;15.77;100.00
50430;BME280;36359;41.556;-8.418;2023-03-31T07:13:31;100913.78;;;16.02;100.00
50430;BME280;36359;41.556;-8.418;2023-03-31T07:15:57;100928.66;;;16.07;100.00
50430;BME280;36359;41.556;-8.418;2023-03-31T07:18:22;100919.09;;;15.95;100.00
50430;BME280;36359;41.556;-8.418;2023-03-31T07:20:58;100923.88;;;15.93;100.00
50430;BME280;36359;41.556;-8.418;2023-03-31T07:23:25;100911.88;;;15.94;100.00
50430;BME280;36359;41.556;-8.418;2023-03-31T07:25:51;100923.00;;;15.84;100.00
50430;BME280;36359;41.556;-8.418;2023-03-31T07:28:17;100915.50;;;15.95;100.00
50430;BME280;36359;41.556;-8.418;2023-03-31T07:30:43;100916.69;;;15.92;100.00
50430;BME280;36359;41.556;-8.418;2023-03-31T07:33:09;100922.16;;;16.00;100.00
50430;BME280;36359;41.556;-8.418;2023-03-31T07:35:39;100923.16;;;15.91;100.00
50430;BME280;36359;41.556;-8.418;2023-03-31T07:38:08;100927.63;;;15.84;100.00
50430;BME280;36359;41.556;-8.418;2023-03-31T07:40:34;100914.97;;;15.91;100.00
50430;BME280;36359;41.556;-8.418;2023-03-31T07:43:00;100930.19;;;15.94;100.00
50430;BME280;36359;41.556;-8.418;2023-03-31T07:45:26;100925.94;;;16.16;100.00
50430;BME280;36359;41.556;-8.418;2023-03-31T07:47:52;100924.72;;;16.02;100.00
50430;BME280;36359;41.556;-8.418;2023-03-31T07:50:19;100925.56;;;16.10;100.00
50430;BME280;36359;41.556;-8.418;2023-03-31T07:52:47;100920.44;;;15.99;100.00
50430;BME280;36359;41.556;-8.418;2023-03-31T07:55:14;100887.94;;;15.96;100.00
50430;BME280;36359;41.556;-8.418;2023-03-31T07:57:40;100879.88;;;16.19;100.00
50430;BME280;36359;41.556;-8.418;2023-03-31T08:00:07;100855.41;;;16.18;100.00
50430;BME280;36359;41.556;-8.418;2023-03-31T08:02:40;100872.88;;;16.08;100.00
50430;BME280;36359;41.556;-8.418;2023-03-31T08:05:08;100884.50;;;16.19;100.00
50430;BME280;36359;41.556;-8.418;2023-03-31T08:07:38;100886.22;;;16.28;100.00
50430;BME280;36359;41.556;-8.418;2023-03-31T08:10:14;100888.09;;;16.19;100.00
50430;BME280;36359;41.556;-8.418;2023-03-31T08:12:40;100886.50;;;16.57;100.00
50430;BME280;36359;41.556;-8.418;2023-03-31T08:15:06;100891.94;;;16.74;99.29
50430;BME280;36359;41.556;-8.418;2023-03-31T08:17:32;100885.44;;;16.67;98.09
50430;BME280;36359;41.556;-8.418;2023-03-31T08:19:58;100896.66;;;16.96;98.54
50430;BME280;36359;41.556;-8.418;2023-03-31T08:22:24;100883.47;;;17.31;96.25
50430;BME280;36359;41.556;-8.418;2023-03-31T08:24:51;100899.16;;;17.45;94.82
50430;BME280;36359;41.556;-8.418;2023-03-31T08:27:16;100916.16;;;17.64;93.01
50430;BME280;36359;41.556;-8.418;2023-03-31T08:29:42;100920.06;;;17.46;93.97
50430;BME280;36359;41.556;-8.418;2023-03-31T08:32:08;100921.69;;;17.56;93.13
50430;BME280;36359;41.556;-8.418;2023-03-31T08:34:36;100919.06;;;17.39;93.25
50430;BME280;36359;41.556;-8.418;2023-03-31T08:37:02;100916.91;;;17.58;93.31
50430;BME280;36359;41.556;-8.418;2023-03-31T08:39:28;100918.88;;;17.41;91.71
50430;BME280;36359;41.556;-8.418;2023-03-31T08:41:59;100924.81;;;17.53;93.30
50430;BME280;36359;41.556;-8.418;2023-03-31T08:44:33;100927.06;;;17.80;91.58
50430;BME280;36359;41.556;-8.418;2023-03-31T08:47:02;100912.88;;;18.14;89.92
50430;BME280;36359;41.556;-8.418;2023-03-31T08:49:59;100919.63;;;18.12;89.45
50430;BME280;36359;41.556;-8.418;2023-03-31T08:52:47;100905.69;;;18.13;89.35
50430;BME280;36359;41.556;-8.418;2023-03-31T08:55:23;100911.44;;;18.04;89.20
50430;BME280;36359;41.556;-8.418;2023-03-31T08:58:06;100908.75;;;18.19;88.84
50430;BME280;36359;41.556;-8.418;2023-03-31T09:00:42;100919.31;;;18.07;88.29
50430;BME280;36359;41.556;-8.418;2023-03-31T09:03:38;100928.41;;;18.07;89.00
50430;BME280;36359;41.556;-8.418;2023-03-31T09:06:21;100914.25;;;17.96;89.82
50430;BME280;36359;41.556;-8.418;2023-03-31T09:08:51;100927.94;;;18.04;89.54
50430;BME280;36359;41.556;-8.418;2023-03-31T09:11:34;100920.41;;;17.75;90.86
50430;BME280;36359;41.556;-8.418;2023-03-31T09:14:30;100929.88;;;18.18;88.40
50430;BME280;36359;41.556;-8.418;2023-03-31T09:17:22;100932.63;;;18.18;88.09
50430;BME280;36359;41.556;-8.418;2023-03-31T09:22:31;100930.13;;;17.85;89.49
50430;BME280;36359;41.556;-8.418;2023-03-31T09:25:09;100936.22;;;17.96;90.65
50430;BME280;36359;41.556;-8.418;2023-03-31T09:27:40;100958.78;;;18.06;89.42
50430;BME280;36359;41.556;-8.418;2023-03-31T09:30:28;100959.03;;;18.19;88.50
50430;BME280;36359;41.556;-8.418;2023-03-31T09:33:11;100960.81;;;17.89;88.65
50430;BME280;36359;41.556;-8.418;2023-03-31T09:35:39;100962.34;;;17.60;88.75
50430;BME280;36359;41.556;-8.418;2023-03-31T09:38:04;100967.06;;;17.04;94.37
50430;BME280;36359;41.556;-8.418;2023-03-31T09:40:31;100972.66;;;17.19;94.80
50430;BME280;36359;41.556;-8.418;2023-03-31T09:43:05;100968.59;;;17.07;94.22
50430;BME280;36359;41.556;-8.418;2023-03-31T09:45:32;100973.28;;;17.29;94.78
50430;BME280;36359;41.556;-8.418;2023-03-31T09:48:04;100983.69;;;17.42;94.64
50430;BME280;36359;41.556;-8.418;2023-03-31T09:50:32;100988.97;;;17.52;93.11
50430;BME280;36359;41.556;-8.418;2023-03-31T09:53:03;100985.22;;;17.76;91.49
50430;BME280;36359;41.556;-8.418;2023-03-31T09:55:43;100982.03;;;17.64;91.94
50430;BME280;36359;41.556;-8.418;2023-03-31T09:58:14;100980.03;;;17.49;91.34
50430;BME280;36359;41.556;-8.418;2023-03-31T10:00:42;100973.06;;;18.01;89.31
50430;BME280;36359;41.556;-8.418;2023-03-31T10:03:12;100982.00;;;18.03;88.97
50430;BME280;36359;41.556;-8.418;2023-03-31T10:05:58;100971.31;;;17.77;86.40
50430;BME280;36359;41.556;-8.418;2023-03-31T10:08:37;100971.13;;;18.10;83.72
50430;BME280;36359;41.556;-8.418;2023-03-31T10:11:17;100973.91;;;17.79;77.57
50430;BME280;36359;41.556;-8.418;2023-03-31T10:16:55;100965.03;;;17.37;84.08
50430;BME280;36359;41.556;-8.418;2023-03-31T10:19:27;100979.06;;;17.42;82.81
50430;BME280;36359;41.556;-8.418;2023-03-31T10:21:57;100978.38;;;17.40;80.76
50430;BME280;36359;41.556;-8.418;2023-03-31T10:24:36;100969.16;;;17.64;83.98
50430;BME280;36359;41.556;-8.418;2023-03-31T10:27:04;100970.50;;;18.00;85.84
50430;BME280;36359;41.556;-8.418;2023-03-31T10:29:32;100978.00;;;18.06;82.93
50430;BME280;36359;41.556;-8.418;2023-03-31T10:32:22;100976.59;;;17.87;79.94
50430;BME280;36359;41.556;-8.418;2023-03-31T10:34:50;100975.25;;;18.06;83.64
50430;BME280;36359;41.556;-8.418;2023-03-31T10:37:18;100977.56;;;17.94;79.17
50430;BME280;36359;41.556;-8.418;2023-03-31T10:39:55;100969.59;;;17.84;81.67
50430;BME280;36359;41.556;-8.418;2023-03-31T10:42:21;100983.75;;;17.65;84.22
50430;BME280;36359;41.556;-8.418;2023-03-31T10:44:48;100989.00;;;17.75;83.23
50430;BME280;36359;41.556;-8.418;2023-03-31T10:49:42;100989.09;;;17.58;80.39
50430;BME280;36359;41.556;-8.418;2023-03-31T10:52:25;100985.72;;;17.79;82.00
50430;BME280;36359;41.556;-8.418;2023-03-31T10:54:59;100992.03;;;18.11;81.85
50430;BME280;36359;41.556;-8.418;2023-03-31T11:06:04;100981.84;;;18.20;78.31
50430;BME280;36359;41.556;-8.418;2023-03-31T11:11:32;100982.91;;;18.56;79.95
50430;BME280;36359;41.556;-8.418;2023-03-31T11:14:16;100984.88;;;18.48;78.40
50430;BME280;36359;41.556;-8.418;2023-03-31T11:17:02;100975.09;;;17.76;78.73
50430;BME280;36359;41.556;-8.418;2023-03-31T11:19:38;100980.81;;;17.66;73.43
50430;BME280;36359;41.556;-8.418;2023-03-31T11:22:24;100975.50;;;18.19;77.96
50430;BME280;36359;41.556;-8.418;2023-03-31T11:31:03;100987.75;;;18.54;77.22
50430;BME280;36359;41.556;-8.418;2023-03-31T11:33:21;100983.03;;;18.63;77.56
50430;BME280;36359;41.556;-8.418;2023-03-31T11:41:22;100978.75;;;18.60;76.87
50430;BME280;36359;41.556;-8.418;2023-03-31T11:43:58;100982.03;;;18.56;75.79
50430;BME280;36359;41.556;-8.418;2023-03-31T11:46:53;100986.00;;;18.38;75.36
50430;BME280;36359;41.556;-8.418;2023-03-31T11:49:41;100980.09;;;18.27;73.50
50430;BME280;36359;41.556;-8.418;2023-03-31T11:54:40;100996.00;;;18.31;76.69
50430;BME280;36359;41.556;-8.418;2023-03-31T11:57:15;100983.84;;;18.26;77.15
50430;BME280;36359;41.556;-8.418;2023-03-31T11:59:48;100996.19;;;18.68;76.87
50430;BME280;36359;41.556;-8.418;2023-03-31T12:02:26;100985.16;;;18.15;78.27
50430;BME280;36359;41.556;-8.418;2023-03-31T12:04:57;100989.44;;;17.95;80.48
50430;BME280;36359;41.556;-8.418;2023-03-31T12:10:14;100988.81;;;18.30;79.86
50430;BME280;36359;41.556;-8.418;2023-03-31T12:12:50;100982.84;;;18.27;79.35
50430;BME280;36359;41.556;-8.418;2023-03-31T12:15:31;100985.66;;;18.19;79.86
50430;BME280;36359;41.556;-8.418;2023-03-31T12:18:08;100973.09;;;17.39;83.58
50430;BME280;36359;41.556;-8.418;2023-03-31T12:20:40;100974.84;;;17.63;81.56
50430;BME280;36359;41.556;-8.418;2023-03-31T12:23:12;100971.88;;;18.04;82.02
50430;BME280;36359;41.556;-8.418;2023-03-31T12:26:01;100980.25;;;18.25;77.48
50430;BME280;36359;41.556;-8.418;2023-03-31T12:28:34;100965.38;;;18.57;77.57
50430;BME280;36359;41.556;-8.418;2023-03-31T12:31:04;100967.84;;;18.67;74.19
50430;BME280;36359;41.556;-8.418;2023-03-31T12:33:35;100970.47;;;18.83;76.03
50430;BME280;36359;41.556;-8.418;2023-03-31T12:36:25;100969.19;;;18.71;76.45
50430;BME280;36359;41.556;-8.418;2023-03-31T12:45:10;100993.88;;;17.96;71.14
50430;BME280;36359;41.556;-8.418;2023-03-31T12:56:04;100993.25;;;18.08;76.01
50430;BME280;36359;41.556;-8.418;2023-03-31T13:03:55;100986.88;;;18.16;71.18
50430;BME280;36359;41.556;-8.418;2023-03-31T13:11:41;100984.69;;;17.88;73.27
50430;BME280;36359;41.556;-8.418;2023-03-31T13:14:23;100979.91;;;18.05;73.41
50430;BME280;36359;41.556;-8.418;2023-03-31T13:16:52;100982.69;;;18.20;71.32
50430;BME280;36359;41.556;-8.418;2023-03-31T13:19:32;100983.44;;;18.37;72.78
50430;BME280;36359;41.556;-8.418;2023-03-31T13:22:00;100977.91;;;18.60;72.63
50430;BME280;36359;41.556;-8.418;2023-03-31T13:24:28;100970.69;;;18.59;70.79
50430;BME280;36359;41.556;-8.418;2023-03-31T13:27:32;100972.06;;;18.78;72.41
50430;BME280;36359;41.556;-8.418;2023-03-31T13:29:58;100983.13;;;18.70;70.23
50430;BME280;36359;41.556;-8.418;2023-03-31T13:32:25;100973.31;;;17.91;71.11
50430;BME280;36359;41.556;-8.418;2023-03-31T13:35:04;100971.78;;;17.89;71.32
50430;BME280;36359;41.556;-8.418;2023-03-31T13:51:57;100959.38;;;18.39;72.16
50430;BME280;36359;41.556;-8.418;2023-03-31T13:57:26;100963.06;;;18.46;73.19
50430;BME280;36359;41.556;-8.418;2023-03-31T14:08:52;100957.03;;;18.51;68.46
50430;BME280;36359;41.556;-8.418;2023-03-31T14:11:30;100947.47;;;18.09;70.75
50430;BME280;36359;41.556;-8.418;2023-03-31T14:14:13;100961.56;;;18.44;69.79
50430;BME280;36359;41.556;-8.418;2023-03-31T14:16:50;100950.84;;;18.11;69.66
50430;BME280;36359;41.556;-8.418;2023-03-31T14:24:55;100944.09;;;18.22;69.70
50430;BME280;36359;41.556;-8.418;2023-03-31T14:31:22;100943.88;;;17.77;70.37
50430;BME280;36359;41.556;-8.418;2023-03-31T14:36:59;100945.88;;;17.91;73.00
50430;BME280;36359;41.556;-8.418;2023-03-31T14:39:35;100951.84;;;17.95;70.86
50430;BME280;36359;41.556;-8.418;2023-03-31T14:42:05;100940.97;;;17.79;70.53
50430;BME280;36359;41.556;-8.418;2023-03-31T14:44:33;100937.31;;;17.86;74.80
50430;BME280;36359;41.556;-8.418;2023-03-31T14:46:58;100951.06;;;18.09;67.58
50430;BME280;36359;41.556;-8.418;2023-03-31T14:49:33;100947.72;;;18.37;69.49
50430;BME280;36359;41.556;-8.418;2023-03-31T14:52:02;100945.28;;;18.42;67.82
50430;BME280;36359;41.556;-8.418;2023-03-31T14:54:33;100941.81;;;18.25;67.92
50430;BME280;36359;41.556;-8.418;2023-03-31T14:57:03;100942.78;;;18.32;68.95
50430;BME280;36359;41.556;-8.418;2023-03-31T14:59:32;100935.00;;;18.21;68.31
50430;BME280;36359;41.556;-8.418;2023-03-31T15:02:00;100939.81;;;18.19;68.19
50430;BME280;36359;41.556;-8.418;2023-03-31T15:04:29;100942.25;;;18.14;67.82
50430;BME280;36359;41.556;-8.418;2023-03-31T15:06:59;100938.97;;;18.19;67.32
50430;BME280;36359;41.556;-8.418;2023-03-31T15:09:28;100940.59;;;18.05;72.83
50430;BME280;36359;41.556;-8.418;2023-03-31T15:12:03;100937.06;;;17.96;71.16
50430;BME280;36359;41.556;-8.418;2023-03-31T15:14:33;100932.91;;;18.23;70.67
50430;BME280;36359;41.556;-8.418;2023-03-31T15:17:01;100930.44;;;18.28;70.05
50430;BME280;36359;41.556;-8.418;2023-03-31T15:19:29;100934.72;;;18.31;69.31
50430;BME280;36359;41.556;-8.418;2023-03-31T15:22:12;100930.84;;;18.40;70.96
50430;BME280;36359;41.556;-8.418;2023-03-31T15:24:38;100938.53;;;18.30;68.46
50430;BME280;36359;41.556;-8.418;2023-03-31T15:27:14;100934.22;;;18.50;69.33
50430;BME280;36359;41.556;-8.418;2023-03-31T15:29:49;100931.94;;;18.69;69.23
50430;BME280;36359;41.556;-8.418;2023-03-31T15:32:31;100930.63;;;18.79;67.95
50430;BME280;36359;41.556;-8.418;2023-03-31T15:34:59;100931.94;;;18.69;69.99
50430;BME280;36359;41.556;-8.418;2023-03-31T15:37:33;100931.75;;;18.70;70.08
50430;BME280;36359;41.556;-8.418;2023-03-31T15:40:02;100929.03;;;18.85;67.91